createdAt,value
2018-10-07T00:00:47.297Z,95293.00
2018-10-07T00:03:19.324Z,95284.00
2018-10-07T00:05:51.664Z,95278.00
2018-10-07T00:08:23.460Z,95277.00
2018-10-07T00:10:55.313Z,95273.00
2018-10-07T00:13:27.193Z,95270.00
2018-10-07T00:15:59.803Z,95271.00
2018-10-07T00:18:31.575Z,95264.00
2018-10-07T00:21:03.517Z,95264.00
2018-10-07T00:23:35.243Z,95260.00
2018-10-07T00:26:07.508Z,95259.00
2018-10-07T00:28:40.733Z,95255.00
2018-10-07T00:31:12.766Z,95254.00
2018-10-07T00:33:44.635Z,95254.00
2018-10-07T00:36:16.396Z,95247.00
2018-10-07T00:38:48.044Z,95245.00
2018-10-07T00:41:19.879Z,95242.00
2018-10-07T00:43:51.536Z,95237.00
2018-10-07T00:46:23.551Z,95232.00
2018-10-07T00:48:55.489Z,95225.00
2018-10-07T00:51:27.681Z,95223.00
2018-10-07T00:53:59.620Z,95228.00
2018-10-07T00:56:31.418Z,95226.00
2018-10-07T00:59:03.426Z,95230.00
2018-10-07T01:01:35.375Z,95229.00
2018-10-07T01:04:07.339Z,95227.00
2018-10-07T01:06:39.592Z,95218.00
2018-10-07T01:09:13.309Z,95219.00
2018-10-07T01:11:46.046Z,95218.00
2018-10-07T01:14:18.098Z,95217.00
2018-10-07T01:16:50.014Z,95217.00
2018-10-07T01:19:21.694Z,95221.00
2018-10-07T01:21:53.433Z,95211.00
2018-10-07T01:24:25.296Z,95207.00
2018-10-07T01:26:57.183Z,95207.00
2018-10-07T01:29:30.045Z,95211.00
2018-10-07T01:32:02.572Z,95200.00
2018-10-07T01:34:34.623Z,95208.00
2018-10-07T01:37:06.686Z,95210.00
2018-10-07T01:39:40.860Z,95207.00
2018-10-07T01:42:12.581Z,95206.00
2018-10-07T01:44:44.589Z,95202.00
2018-10-07T01:47:17.234Z,95204.00
2018-10-07T01:49:48.840Z,95204.00
2018-10-07T01:52:20.837Z,95204.00
2018-10-07T01:54:52.519Z,95208.00
2018-10-07T01:57:24.512Z,95210.00
2018-10-07T01:59:57.473Z,95209.00
2018-10-07T02:02:29.862Z,95206.00
2018-10-07T02:05:01.849Z,95205.00
2018-10-07T02:07:33.826Z,95202.00
2018-10-07T02:10:05.713Z,95204.00
2018-10-07T02:12:37.177Z,95196.00
2018-10-07T02:15:08.977Z,95196.00
2018-10-07T02:17:41.134Z,95189.00
2018-10-07T02:20:13.133Z,95189.00
2018-10-07T02:22:44.955Z,95187.00
2018-10-07T02:25:17.736Z,95187.00
2018-10-07T02:27:49.525Z,95188.00
2018-10-07T02:30:21.348Z,95182.00
2018-10-07T02:32:54.057Z,95182.00
2018-10-07T02:35:25.718Z,95178.00
2018-10-07T02:37:58.297Z,95181.00
2018-10-07T02:40:30.042Z,95184.00
2018-10-07T02:43:01.885Z,95188.00
2018-10-07T02:45:33.597Z,95186.00
2018-10-07T02:48:05.457Z,95185.00
2018-10-07T02:50:37.505Z,95187.00
2018-10-07T02:53:10.034Z,95179.00
2018-10-07T02:55:41.860Z,95177.00
2018-10-07T02:58:14.130Z,95178.00
2018-10-07T03:00:45.990Z,95182.00
2018-10-07T03:03:17.632Z,95185.00
2018-10-07T03:05:49.553Z,95182.00
2018-10-07T03:08:21.473Z,95185.00
2018-10-07T03:10:53.534Z,95178.00
2018-10-07T03:13:25.704Z,95179.00
2018-10-07T03:15:57.749Z,95172.00
2018-10-07T03:18:30.079Z,95171.00
2018-10-07T03:21:02.485Z,95169.00
2018-10-07T03:23:34.989Z,95172.00
2018-10-07T03:26:07.532Z,95172.00
2018-10-07T03:28:40.253Z,95167.00
2018-10-07T03:31:12.489Z,95168.00
2018-10-07T03:33:44.300Z,95167.00
2018-10-07T03:36:16.054Z,95163.00
2018-10-07T03:38:47.984Z,95163.00
2018-10-07T03:41:21.201Z,95164.00
2018-10-07T03:43:53.023Z,95167.00
2018-10-07T03:46:24.815Z,95161.00
2018-10-07T03:48:56.884Z,95167.00
2018-10-07T03:51:29.788Z,95168.00
2018-10-07T03:54:01.563Z,95173.00
2018-10-07T03:56:33.286Z,95170.00
2018-10-07T03:59:05.315Z,95166.00
2018-10-07T04:01:37.283Z,95167.00
2018-10-07T04:04:09.108Z,95162.00
2018-10-07T04:06:41.028Z,95157.00
2018-10-07T04:09:14.085Z,95154.00
2018-10-07T04:11:45.815Z,95154.00
2018-10-07T04:14:17.687Z,95162.00
2018-10-07T04:16:50.437Z,95156.00
2018-10-07T04:19:22.404Z,95158.00
2018-10-07T04:21:56.480Z,95158.00
2018-10-07T04:24:31.909Z,95159.00
2018-10-07T04:27:04.648Z,95162.00
2018-10-07T04:29:36.699Z,95162.00
2018-10-07T04:32:08.719Z,95165.00
2018-10-07T04:34:41.107Z,95162.00
2018-10-07T04:37:13.396Z,95162.00
2018-10-07T04:39:45.420Z,95164.00
2018-10-07T04:42:17.823Z,95167.00
2018-10-07T04:44:50.363Z,95170.00
2018-10-07T04:47:22.440Z,95177.00
2018-10-07T04:49:54.335Z,95181.00
2018-10-07T04:52:26.493Z,95175.00
2018-10-07T04:54:59.022Z,95183.00
2018-10-07T04:57:30.790Z,95175.00
2018-10-07T05:00:03.063Z,95175.00
2018-10-07T05:02:35.159Z,95178.00
2018-10-07T05:06:37.930Z,95174.00
2018-10-07T05:09:11.625Z,95164.00
2018-10-07T05:11:45.188Z,95166.00
2018-10-07T05:14:18.092Z,95170.00
2018-10-07T05:16:53.026Z,95165.00
2018-10-07T05:19:25.067Z,95166.00
2018-10-07T05:21:57.149Z,95161.00
2018-10-07T05:24:29.152Z,95163.00
2018-10-07T05:27:02.598Z,95158.00
2018-10-07T05:29:34.765Z,95172.00
2018-10-07T05:32:06.748Z,95167.00
2018-10-07T05:34:39.281Z,95155.00
2018-10-07T05:37:11.488Z,95163.00
2018-10-07T05:39:43.487Z,95173.00
2018-10-07T05:42:15.670Z,95168.00
2018-10-07T05:44:47.818Z,95169.00
2018-10-07T05:47:19.669Z,95165.00
2018-10-07T05:49:52.548Z,95165.00
2018-10-07T05:52:24.431Z,95162.00
2018-10-07T05:54:56.699Z,95166.00
2018-10-07T05:57:28.966Z,95158.00
2018-10-07T06:00:01.477Z,95153.00
2018-10-07T06:02:34.319Z,95161.00
2018-10-07T06:05:06.928Z,95149.00
2018-10-07T06:07:39.399Z,95149.00
2018-10-07T06:10:11.940Z,95152.00
2018-10-07T06:12:44.184Z,95155.00
2018-10-07T06:15:37.425Z,95159.00
2018-10-07T06:18:09.025Z,95159.00
2018-10-07T06:20:41.456Z,95160.00
2018-10-07T06:23:14.589Z,95165.00
2018-10-07T06:25:46.747Z,95162.00
2018-10-07T06:28:18.740Z,95154.00
2018-10-07T06:30:50.936Z,95152.00
2018-10-07T06:33:23.049Z,95149.00
2018-10-07T06:35:55.925Z,95145.00
2018-10-07T06:38:28.297Z,95146.00
2018-10-07T06:41:00.319Z,95143.00
2018-10-07T06:43:32.782Z,95146.00
2018-10-07T06:46:04.826Z,95141.00
2018-10-07T06:48:36.800Z,95135.00
2018-10-07T06:51:08.925Z,95140.00
2018-10-07T06:53:41.021Z,95142.00
2018-10-07T06:56:13.326Z,95141.00
2018-10-07T06:58:45.400Z,95140.00
2018-10-07T07:01:17.563Z,95138.00
2018-10-07T07:03:49.874Z,95137.00
2018-10-07T07:06:22.103Z,95138.00
2018-10-07T07:08:54.761Z,95138.00
2018-10-07T07:11:27.113Z,95137.00
2018-10-07T07:13:59.329Z,95135.00
2018-10-07T07:16:31.495Z,95139.00
2018-10-07T07:19:03.581Z,95135.00
2018-10-07T07:21:36.040Z,95133.00
2018-10-07T07:24:09.462Z,95127.00
2018-10-07T07:26:41.936Z,95126.00
2018-10-07T07:29:14.123Z,95125.00
2018-10-07T07:31:46.420Z,95125.00
2018-10-07T07:34:18.892Z,95126.00
2018-10-07T07:36:51.391Z,95121.00
2018-10-07T07:39:23.675Z,95117.00
2018-10-07T07:41:56.291Z,95118.00
2018-10-07T07:44:28.417Z,95109.00
2018-10-07T07:47:01.577Z,95111.00
2018-10-07T07:49:34.054Z,95109.00
2018-10-07T07:52:06.260Z,95108.00
2018-10-07T07:54:38.559Z,95104.00
2018-10-07T07:57:10.316Z,95099.00
2018-10-07T07:59:42.441Z,95097.00
2018-10-07T08:02:14.454Z,95091.00
2018-10-07T08:04:47.452Z,95086.00
2018-10-07T08:07:20.135Z,95086.00
2018-10-07T08:09:52.549Z,95083.00
2018-10-07T08:12:24.608Z,95076.00
2018-10-07T08:14:57.012Z,95076.00
2018-10-07T08:17:29.320Z,95077.00
2018-10-07T08:20:01.366Z,95068.00
2018-10-07T08:22:33.395Z,95072.00
2018-10-07T08:25:05.508Z,95069.00
2018-10-07T08:27:37.617Z,95062.00
2018-10-07T08:30:09.950Z,95063.00
2018-10-07T08:32:42.252Z,95051.00
2018-10-07T08:35:14.626Z,95055.00
2018-10-07T08:37:46.312Z,95056.00
2018-10-07T08:40:18.541Z,95052.00
2018-10-07T08:42:51.181Z,95045.00
2018-10-07T08:45:23.279Z,95044.00
2018-10-07T08:47:55.681Z,95047.00
2018-10-07T08:50:28.457Z,95047.00
2018-10-07T08:53:00.935Z,95046.00
2018-10-07T08:55:33.458Z,95037.00
2018-10-07T08:58:06.064Z,95034.00
2018-10-07T09:00:38.689Z,95028.00
2018-10-07T09:03:11.591Z,95030.00
2018-10-07T09:05:43.172Z,95027.00
2018-10-07T09:08:15.341Z,95027.00
2018-10-07T09:10:47.562Z,95025.00
2018-10-07T09:13:20.347Z,95016.00
2018-10-07T09:15:52.625Z,95011.00
2018-10-07T09:18:24.769Z,95013.00
2018-10-07T09:20:56.818Z,95010.00
2018-10-07T09:23:28.947Z,95011.00
2018-10-07T09:26:02.089Z,95012.00
2018-10-07T09:28:35.814Z,95010.00
2018-10-07T09:31:07.919Z,95008.00
2018-10-07T09:33:39.526Z,95004.00
2018-10-07T09:36:11.869Z,94999.00
2018-10-07T09:38:47.690Z,94994.00
2018-10-07T09:41:20.130Z,94989.00
2018-10-07T09:43:53.723Z,94984.00
2018-10-07T09:46:25.943Z,94978.00
2018-10-07T09:48:58.628Z,94978.00
2018-10-07T09:51:30.811Z,94971.00
2018-10-07T09:54:03.239Z,94966.00
2018-10-07T09:56:35.462Z,94963.00
2018-10-07T09:59:07.480Z,94963.00
2018-10-07T10:01:39.922Z,94960.00
2018-10-07T10:04:12.298Z,94951.00
2018-10-07T10:06:44.771Z,94956.00
2018-10-07T10:09:16.758Z,94953.00
2018-10-07T10:11:49.587Z,94950.00
2018-10-07T10:14:21.968Z,94945.00
2018-10-07T10:17:01.960Z,94937.00
2018-10-07T10:20:03.865Z,94941.00
2018-10-07T10:22:59.735Z,94927.00
2018-10-07T10:27:50.049Z,94921.00
2018-10-07T10:30:35.699Z,94908.00
2018-10-07T10:33:24.431Z,94906.00
2018-10-07T10:36:09.773Z,94902.00
2018-10-07T10:39:05.686Z,94895.00
2018-10-07T10:42:46.782Z,94891.00
2018-10-07T10:46:42.778Z,94890.00
2018-10-07T10:49:30.712Z,94882.00
2018-10-07T10:53:27.506Z,94868.00
2018-10-07T10:56:26.817Z,94857.00
2018-10-07T11:00:07.134Z,94859.00
2018-10-07T11:03:55.604Z,94855.00
2018-10-07T11:06:53.077Z,94849.00
2018-10-07T11:11:55.165Z,94839.00
2018-10-07T11:15:45.385Z,94830.00
2018-10-07T11:18:29.638Z,94828.00
2018-10-07T11:21:17.968Z,94819.00
2018-10-07T11:24:11.113Z,94822.00
2018-10-07T11:28:02.110Z,94825.00
2018-10-07T11:32:50.501Z,94817.00
2018-10-07T11:35:42.339Z,94805.00
2018-10-07T11:40:55.686Z,94806.00
2018-10-07T11:44:12.188Z,94798.00
2018-10-07T11:47:07.073Z,94799.00
2018-10-07T11:49:50.332Z,94797.00
2018-10-07T11:52:57.951Z,94796.00
2018-10-07T11:55:30.792Z,94783.00
2018-10-07T11:58:03.068Z,94778.00
2018-10-07T12:00:35.649Z,94778.00
2018-10-07T12:03:09.596Z,94782.00
2018-10-07T12:05:41.683Z,94776.00
2018-10-07T12:08:14.440Z,94774.00
2018-10-07T12:10:47.201Z,94772.00
2018-10-07T12:13:19.596Z,94769.00
2018-10-07T12:15:51.667Z,94765.00
2018-10-07T12:18:24.684Z,94767.00
2018-10-07T12:20:57.665Z,94755.00
2018-10-07T12:23:30.213Z,94751.00
2018-10-07T12:26:02.533Z,94742.00
2018-10-07T12:28:35.869Z,94741.00
2018-10-07T12:31:08.424Z,94738.00
2018-10-07T12:33:40.657Z,94727.00
2018-10-07T12:36:14.095Z,94731.00
2018-10-07T12:38:49.299Z,94729.00
2018-10-07T12:41:21.433Z,94725.00
2018-10-07T12:43:54.475Z,94723.00
2018-10-07T12:46:26.918Z,94728.00
2018-10-07T12:48:59.096Z,94718.00
2018-10-07T12:51:31.916Z,94714.00
2018-10-07T12:54:04.752Z,94716.00
2018-10-07T12:56:46.512Z,94710.00
2018-10-07T12:59:18.629Z,94713.00
2018-10-07T13:01:51.317Z,94709.00
2018-10-07T13:04:24.565Z,94702.00
2018-10-07T13:06:56.531Z,94698.00
2018-10-07T13:09:29.271Z,94698.00
2018-10-07T13:12:01.884Z,94698.00
2018-10-07T13:14:34.158Z,94691.00
2018-10-07T13:17:06.231Z,94692.00
2018-10-07T13:19:38.572Z,94692.00
2018-10-07T13:22:10.784Z,94691.00
2018-10-07T13:24:42.786Z,94691.00
2018-10-07T13:27:15.085Z,94688.00
2018-10-07T13:29:47.226Z,94682.00
2018-10-07T13:32:19.802Z,94685.00
2018-10-07T13:34:52.138Z,94685.00
2018-10-07T13:37:24.239Z,94683.00
2018-10-07T13:39:56.979Z,94684.00
2018-10-07T13:42:29.533Z,94680.00
2018-10-07T13:45:01.947Z,94676.00
2018-10-07T13:47:34.326Z,94671.00
2018-10-07T13:50:06.943Z,94671.00
2018-10-07T13:52:39.218Z,94671.00
2018-10-07T13:55:11.298Z,94666.00
2018-10-07T13:57:43.355Z,94656.00
2018-10-07T14:00:15.805Z,94658.00
2018-10-07T14:02:48.327Z,94663.00
2018-10-07T14:05:20.809Z,94659.00
2018-10-07T14:07:52.886Z,94664.00
2018-10-07T14:10:25.212Z,94658.00
2018-10-07T14:12:57.547Z,94661.00
2018-10-07T14:15:29.695Z,94659.00
2018-10-07T14:18:03.113Z,94663.00
2018-10-07T14:20:35.243Z,94659.00
2018-10-07T14:23:07.914Z,94659.00
2018-10-07T14:25:40.307Z,94655.00
2018-10-07T14:28:12.477Z,94655.00
2018-10-07T14:30:45.450Z,94653.00
2018-10-07T14:33:17.929Z,94653.00
2018-10-07T14:35:50.220Z,94659.00
2018-10-07T14:38:22.668Z,94655.00
2018-10-07T14:40:54.802Z,94653.00
2018-10-07T14:43:27.149Z,94650.00
2018-10-07T14:45:59.336Z,94647.00
2018-10-07T14:48:33.004Z,94650.00
2018-10-07T14:51:05.902Z,94651.00
2018-10-07T14:53:38.136Z,94658.00
2018-10-07T14:56:10.690Z,94656.00
2018-10-07T14:58:43.148Z,94657.00
2018-10-07T15:01:15.806Z,94652.00
2018-10-07T15:03:48.130Z,94651.00
2018-10-07T15:06:20.568Z,94655.00
2018-10-07T15:08:53.021Z,94649.00
2018-10-07T15:11:26.274Z,94649.00
2018-10-07T15:13:59.339Z,94646.00
2018-10-07T15:16:32.228Z,94656.00
2018-10-07T15:19:04.507Z,94656.00
2018-10-07T15:21:36.798Z,94658.00
2018-10-07T15:24:09.332Z,94663.00
2018-10-07T15:26:42.311Z,94663.00
2018-10-07T15:29:16.363Z,94662.00
2018-10-07T15:31:49.498Z,94668.00
2018-10-07T15:34:21.619Z,94670.00
2018-10-07T15:36:53.772Z,94677.00
2018-10-07T15:39:27.417Z,94681.00
2018-10-07T15:42:01.185Z,94675.00
2018-10-07T15:44:34.132Z,94680.00
2018-10-07T15:47:06.599Z,94675.00
2018-10-07T15:49:38.803Z,94676.00
2018-10-07T15:52:10.924Z,94679.00
2018-10-07T15:54:43.709Z,94677.00
2018-10-07T15:57:15.483Z,94688.00
2018-10-07T15:59:47.579Z,94685.00
2018-10-07T16:02:19.932Z,94686.00
2018-10-07T16:04:54.281Z,94690.00
2018-10-07T16:07:27.471Z,94694.00
2018-10-07T16:09:59.782Z,94701.00
2018-10-07T16:12:33.415Z,94704.00
2018-10-07T16:15:06.139Z,94709.00
2018-10-07T16:17:40.398Z,94713.00
2018-10-07T16:20:12.815Z,94720.00
2018-10-07T16:22:45.972Z,94721.00
2018-10-07T16:25:19.105Z,94725.00
2018-10-07T16:27:51.479Z,94725.00
2018-10-07T16:30:23.432Z,94728.00
2018-10-07T16:32:55.682Z,94733.00
2018-10-07T16:35:28.094Z,94728.00
2018-10-07T16:38:00.820Z,94736.00
2018-10-07T16:40:34.365Z,94741.00
2018-10-07T16:43:06.955Z,94746.00
2018-10-07T16:45:39.235Z,94747.00
2018-10-07T16:48:11.643Z,94750.00
2018-10-07T16:50:44.092Z,94757.00
2018-10-07T16:53:16.519Z,94761.00
2018-10-07T16:55:48.878Z,94762.00
2018-10-07T16:58:22.697Z,94771.00
2018-10-07T17:00:55.201Z,94769.00
2018-10-07T17:03:27.291Z,94773.00
2018-10-07T17:05:59.933Z,94774.00
2018-10-07T17:08:32.120Z,94779.00
2018-10-07T17:11:05.427Z,94779.00
2018-10-07T17:13:38.113Z,94785.00
2018-10-07T17:16:10.749Z,94785.00
2018-10-07T17:18:43.577Z,94791.00
2018-10-07T17:21:15.644Z,94792.00
2018-10-07T17:23:47.887Z,94793.00
2018-10-07T17:26:20.801Z,94793.00
2018-10-07T17:28:54.193Z,94795.00
2018-10-07T17:31:26.719Z,94798.00
2018-10-07T17:33:59.785Z,94807.00
2018-10-07T17:36:38.952Z,94807.00
2018-10-07T17:39:12.606Z,94805.00
2018-10-07T17:41:44.929Z,94819.00
2018-10-07T17:44:18.386Z,94822.00
2018-10-07T17:46:50.705Z,94820.00
2018-10-07T17:49:23.778Z,94821.00
2018-10-07T17:51:56.768Z,94823.00
2018-10-07T17:54:30.039Z,94828.00
2018-10-07T17:57:02.573Z,94831.00
2018-10-07T17:59:36.142Z,94840.00
2018-10-07T18:02:10.196Z,94838.00
2018-10-07T18:04:43.557Z,94844.00
2018-10-07T18:07:16.376Z,94842.00
2018-10-07T18:09:49.370Z,94841.00
2018-10-07T18:12:22.283Z,94852.00
2018-10-07T18:14:55.368Z,94853.00
2018-10-07T18:17:28.031Z,94852.00
2018-10-07T18:20:02.747Z,94858.00
2018-10-07T18:22:36.099Z,94855.00
2018-10-07T18:25:08.779Z,94857.00
2018-10-07T18:27:41.092Z,94866.00
2018-10-07T18:30:13.818Z,94866.00
2018-10-07T18:32:46.843Z,94873.00
2018-10-07T18:35:19.289Z,94874.00
2018-10-07T18:37:51.827Z,94874.00
2018-10-07T18:40:23.964Z,94876.00
2018-10-07T18:42:56.232Z,94878.00
2018-10-07T18:45:28.975Z,94882.00
2018-10-07T18:48:01.473Z,94884.00
2018-10-07T18:50:34.313Z,94890.00
2018-10-07T18:53:07.571Z,94894.00
2018-10-07T18:55:39.968Z,94901.00
2018-10-07T18:58:12.607Z,94901.00
2018-10-07T19:00:45.669Z,94897.00
2018-10-07T19:03:18.182Z,94898.00
2018-10-07T19:05:50.414Z,94901.00
2018-10-07T19:08:23.254Z,94906.00
2018-10-07T19:10:55.421Z,94903.00
2018-10-07T19:13:27.412Z,94900.00
2018-10-07T19:15:59.745Z,94903.00
2018-10-07T19:18:32.420Z,94907.00
2018-10-07T19:21:04.680Z,94909.00
2018-10-07T19:23:36.933Z,94909.00
2018-10-07T19:26:09.090Z,94919.00
2018-10-07T19:28:41.687Z,94923.00
2018-10-07T19:31:14.664Z,94923.00
2018-10-07T19:33:47.557Z,94927.00
2018-10-07T19:36:19.575Z,94934.00
2018-10-07T19:38:51.912Z,94931.00
2018-10-07T19:41:24.455Z,94931.00
2018-10-07T19:43:56.663Z,94934.00
2018-10-07T19:46:29.070Z,94933.00
2018-10-07T19:49:01.193Z,94938.00
2018-10-07T19:51:34.199Z,94934.00
2018-10-07T19:54:06.321Z,94939.00
2018-10-07T19:56:38.613Z,94942.00
2018-10-07T19:59:10.784Z,94946.00
2018-10-07T20:01:42.882Z,94943.00
2018-10-07T20:04:15.060Z,94943.00
2018-10-07T20:06:47.243Z,94949.00
2018-10-07T20:09:19.093Z,94947.00
2018-10-07T20:11:51.759Z,94950.00
2018-10-07T20:14:24.282Z,94952.00
2018-10-07T20:16:56.010Z,94951.00
2018-10-07T20:19:28.270Z,94948.00
2018-10-07T20:22:00.329Z,94949.00
2018-10-07T20:24:32.576Z,94952.00
2018-10-07T20:27:04.541Z,94950.00
2018-10-07T20:29:37.171Z,94948.00
2018-10-07T20:32:09.460Z,94953.00
2018-10-07T20:34:43.109Z,94953.00
2018-10-07T20:37:15.827Z,94956.00
2018-10-07T20:39:48.024Z,94956.00
2018-10-07T20:42:21.282Z,94952.00
2018-10-07T20:44:53.764Z,94955.00
2018-10-07T20:47:25.874Z,94958.00
2018-10-07T20:49:58.189Z,94963.00
2018-10-07T20:52:30.507Z,94963.00
2018-10-07T20:55:02.812Z,94962.00
2018-10-07T20:57:34.870Z,94962.00
2018-10-07T21:00:07.403Z,94961.00
2018-10-07T21:02:39.399Z,94961.00
2018-10-07T21:05:11.783Z,94961.00
2018-10-07T21:07:44.115Z,94972.00
2018-10-07T21:10:16.315Z,94968.00
2018-10-07T21:12:48.736Z,94966.00
2018-10-07T21:15:20.940Z,94967.00
2018-10-07T21:17:53.114Z,94962.00
2018-10-07T21:20:26.455Z,94963.00
2018-10-07T21:22:58.622Z,94963.00
2018-10-07T21:25:31.106Z,94969.00
2018-10-07T21:28:03.182Z,94968.00
2018-10-07T21:30:35.358Z,94970.00
2018-10-07T21:33:07.144Z,94967.00
2018-10-07T21:35:39.169Z,94967.00
2018-10-07T21:38:11.452Z,94970.00
2018-10-07T21:40:43.603Z,94973.00
2018-10-07T21:43:16.970Z,94970.00
2018-10-07T21:45:49.110Z,94971.00
2018-10-07T21:48:21.087Z,94966.00
2018-10-07T21:50:53.104Z,94967.00
2018-10-07T21:53:26.242Z,94964.00
2018-10-07T21:55:58.756Z,94970.00
2018-10-07T21:58:30.973Z,94967.00
2018-10-07T22:01:03.218Z,94959.00
2018-10-07T22:03:35.335Z,94960.00
2018-10-07T22:06:07.877Z,94962.00
2018-10-07T22:08:39.873Z,94961.00
2018-10-07T22:11:11.789Z,94961.00
2018-10-07T22:13:44.036Z,94954.00
2018-10-07T22:16:16.146Z,94955.00
2018-10-07T22:18:48.477Z,94953.00
2018-10-07T22:21:20.536Z,94953.00
2018-10-07T22:23:52.689Z,94949.00
2018-10-07T22:26:25.369Z,94956.00
2018-10-07T22:28:57.794Z,94953.00
2018-10-07T22:31:29.799Z,94963.00
2018-10-07T22:34:01.851Z,94964.00
2018-10-07T22:36:33.795Z,94965.00
2018-10-07T22:39:07.243Z,94969.00
2018-10-07T22:41:39.298Z,94970.00
2018-10-07T22:44:11.502Z,94964.00
2018-10-07T22:46:43.527Z,94961.00
2018-10-07T22:49:15.562Z,94962.00
2018-10-07T22:51:47.451Z,94967.00
2018-10-07T22:54:19.548Z,94965.00
2018-10-07T22:56:51.887Z,94964.00
2018-10-07T22:59:23.940Z,94969.00
2018-10-07T23:01:56.275Z,94962.00
2018-10-07T23:04:28.406Z,94957.00
2018-10-07T23:07:00.446Z,94960.00
2018-10-07T23:09:32.356Z,94961.00
2018-10-07T23:12:04.382Z,94959.00
2018-10-07T23:14:36.543Z,94959.00
2018-10-07T23:17:09.220Z,94961.00
2018-10-07T23:19:41.288Z,94960.00
2018-10-07T23:22:13.105Z,94954.00
2018-10-07T23:24:45.231Z,94955.00
2018-10-07T23:27:17.264Z,94961.00
2018-10-07T23:29:49.033Z,94953.00
2018-10-07T23:32:20.963Z,94958.00
2018-10-07T23:34:53.160Z,94952.00
2018-10-07T23:37:25.233Z,94949.00
2018-10-07T23:39:57.330Z,94945.00
2018-10-07T23:42:29.444Z,94948.00
2018-10-07T23:45:01.382Z,94948.00
2018-10-07T23:47:33.576Z,94949.00
2018-10-07T23:50:05.513Z,94949.00
2018-10-07T23:52:37.270Z,94953.00
2018-10-07T23:55:09.215Z,94952.00
2018-10-07T23:57:41.656Z,94945.00
